West Rock, Minnesota
Current Conditions -  °F | °C
As of 11:35 PM on Saturday 22 Nov 2014 (Local Time) from KROS Reporting Station
Haze Haze  
Wind Chill: 32°   Ceiling: 200
Heat Index: 37°   Visibility: 3mi
Dew Point: 36°   Wind: 6mph
Humidity: 97%   Direction: 150°SSE
Pressure: 29.51"   Gusts: NA
Location:  45.8356°N, 92.9649°W
Report Text: KROS 230535Z AUTO 15005KT 3SM BR OVC002 03/02 A2951 RMK AO2 T00260021
Loading
Personal Weather Stations






























Interactive Weather Map New forecast layout! Learn more

10-Day Weather Forecast

Advertisements
Track Severe Weather on mobile